Time;durP1;ratioP1;P1;durP2;ratioP2;P2;SDS_P1;SDS_P2;PMS_P1;PMS_P2;Temp;Humidity;BMP_temperature;BMP_pressure;BME280_temperature;BME280_humidity;BME280_pressure;Samples;Min_cycle;Max_cycle;Signal;HPM_P1;HPM_P2
2022/08/27 00:00:26;;;;;;;7.38;2.83;;;14.90;99.90;;;;;;5095727;27;20126;-66
2022/08/27 00:02:51;;;;;;;6.07;2.30;;;14.90;99.90;;;;;;5133899;27;20129;-65
2022/08/27 00:05:18;;;;;;;7.57;2.50;;;14.80;99.90;;;;;;5113382;27;20039;-66
2022/08/27 00:07:45;;;;;;;8.90;2.17;;;14.80;99.90;;;;;;5144300;27;20729;-66
2022/08/27 00:10:16;;;;;;;6.57;2.38;;;14.70;99.90;;;;;;5110568;27;20501;-66
2022/08/27 00:12:42;;;;;;;6.57;2.65;;;14.80;99.90;;;;;;5131409;27;20411;-66
2022/08/27 00:15:08;;;;;;;6.03;2.05;;;14.70;99.90;;;;;;5118638;27;20043;-66
2022/08/27 00:17:34;;;;;;;8.13;2.40;;;14.60;99.90;;;;;;5110430;27;20051;-66
2022/08/27 00:20:00;;;;;;;7.55;2.60;;;14.60;99.90;;;;;;5112397;27;20403;-66
2022/08/27 00:22:26;;;;;;;6.40;2.47;;;14.60;99.90;;;;;;5112247;27;20059;-65
2022/08/27 00:24:52;;;;;;;7.78;2.50;;;14.60;99.90;;;;;;5111338;27;20050;-66
2022/08/27 00:27:18;;;;;;;6.38;2.40;;;14.50;99.90;;;;;;5129927;27;20527;-65
2022/08/27 00:29:44;;;;;;;6.97;2.42;;;14.50;99.90;;;;;;5130566;27;20046;-65
2022/08/27 00:32:10;;;;;;;9.10;2.60;;;14.50;99.90;;;;;;5110930;27;20445;-66
2022/08/27 00:34:35;;;;;;;8.07;2.50;;;14.50;99.90;;;;;;5130406;27;20039;-66
2022/08/27 00:37:02;;;;;;;6.95;2.83;;;14.40;99.90;;;;;;5130007;27;20126;-65
2022/08/27 00:39:28;;;;;;;6.75;2.50;;;14.40;99.90;;;;;;5128813;27;20441;-66
2022/08/27 00:41:54;;;;;;;7.80;2.47;;;14.40;99.90;;;;;;5131475;27;20043;-66
2022/08/27 00:44:20;;;;;;;6.20;2.80;;;14.40;99.90;;;;;;5093944;27;20099;-65
2022/08/27 00:46:51;;;;;;;6.35;2.67;;;14.30;99.90;;;;;;5129899;27;20407;-66
2022/08/27 00:49:39;;;;;;;8.05;2.38;;;14.30;99.90;;;;;;5111565;27;20475;-65
2022/08/27 00:52:12;;;;;;;6.80;2.72;;;14.30;99.90;;;;;;5127234;27;20134;-65
2022/08/27 00:54:37;;;;;;;6.65;2.58;;;14.20;99.90;;;;;;5111629;27;20100;-65
2022/08/27 00:57:04;;;;;;;8.23;3.08;;;14.20;99.90;;;;;;5112150;27;20039;-66
2022/08/27 00:59:31;;;;;;;7.97;2.60;;;14.20;99.90;;;;;;5130906;27;20126;-66
2022/08/27 01:04:46;;;;;;;8.65;3.50;;;14.20;99.90;;;;;;5130658;27;20058;-65
2022/08/27 01:07:13;;;;;;;7.47;2.85;;;14.10;99.90;;;;;;5127712;27;20546;-66
2022/08/27 01:09:41;;;;;;;5.90;2.95;;;14.10;99.90;;;;;;5105778;27;20047;-66
2022/08/27 01:12:09;;;;;;;7.35;2.92;;;14.00;99.90;;;;;;5103553;27;20514;-65
2022/08/27 01:14:36;;;;;;;7.35;2.83;;;14.10;99.90;;;;;;5111672;27;20043;-66
2022/08/27 01:17:02;;;;;;;5.72;2.75;;;14.30;99.90;;;;;;5110872;27;20134;-66
2022/08/27 01:19:37;;;;;;;9.98;3.40;;;14.10;99.90;;;;;;5132494;27;20046;-65
2022/08/27 01:22:23;;;;;;;9.20;2.95;;;14.10;99.90;;;;;;5128388;27;20039;-66
2022/08/27 01:24:53;;;;;;;9.38;3.15;;;14.10;99.90;;;;;;5111491;27;20042;-66
2022/08/27 01:27:21;;;;;;;8.20;3.03;;;14.10;99.90;;;;;;5127738;27;20551;-66
2022/08/27 01:29:47;;;;;;;7.82;3.38;;;14.10;99.90;;;;;;5129847;27;20035;-65
2022/08/27 01:32:20;;;;;;;5.80;2.70;;;14.10;99.90;;;;;;5110758;27;20047;-65
2022/08/27 01:34:46;;;;;;;6.13;2.80;;;14.10;99.90;;;;;;5092113;27;20662;-65
2022/08/27 01:37:13;;;;;;;9.35;3.00;;;14.10;99.90;;;;;;5107529;27;20039;-66
2022/08/27 01:39:40;;;;;;;7.35;3.22;;;14.10;99.90;;;;;;5120385;27;20574;-65
2022/08/27 01:42:12;;;;;;;6.80;2.75;;;14.10;99.90;;;;;;5115105;27;20228;-66
2022/08/27 01:44:53;;;;;;;9.93;2.97;;;14.10;99.90;;;;;;5142870;27;20058;-65
2022/08/27 01:47:22;;;;;;;8.52;3.10;;;14.20;99.90;;;;;;5132162;27;20046;-66
2022/08/27 01:49:48;;;;;;;7.97;2.83;;;14.20;99.90;;;;;;5127531;27;20072;-65
2022/08/27 01:52:17;;;;;;;6.85;2.97;;;14.10;99.90;;;;;;5128338;27;20049;-66
2022/08/27 01:54:43;;;;;;;8.55;3.30;;;14.10;99.90;;;;;;5100264;27;20502;-65
2022/08/27 01:57:10;;;;;;;7.63;3.00;;;14.10;99.90;;;;;;5127982;27;20391;-66
2022/08/27 01:59:36;;;;;;;6.63;2.63;;;14.20;99.90;;;;;;5110311;27;20547;-65
2022/08/27 02:02:02;;;;;;;6.88;3.10;;;14.20;99.90;;;;;;5127983;27;20043;-66
2022/08/27 02:04:29;;;;;;;8.65;3.03;;;14.10;99.90;;;;;;5109364;27;20043;-65
2022/08/27 02:06:55;;;;;;;10.02;3.00;;;14.10;99.90;;;;;;5109203;27;20039;-65
2022/08/27 02:09:21;;;;;;;5.93;2.38;;;14.10;99.90;;;;;;5140079;27;20039;-66
2022/08/27 02:11:46;;;;;;;7.25;2.83;;;14.10;99.90;;;;;;5129973;27;20050;-66
2022/08/27 02:14:12;;;;;;;10.00;3.65;;;14.10;99.90;;;;;;5116348;27;20555;-66
2022/08/27 02:16:38;;;;;;;11.15;3.40;;;14.00;99.90;;;;;;5111397;27;20043;-66
2022/08/27 02:19:04;;;;;;;8.68;3.10;;;14.00;99.90;;;;;;5113134;27;20376;-65
2022/08/27 02:21:30;;;;;;;7.40;2.90;;;14.10;99.90;;;;;;5109934;27;20078;-65
2022/08/27 02:23:56;;;;;;;5.28;2.70;;;14.00;99.90;;;;;;5107400;27;20073;-67
2022/08/27 02:26:22;;;;;;;5.28;2.28;;;13.90;99.90;;;;;;5109689;27;20053;-66
2022/08/27 02:28:47;;;;;;;8.18;2.88;;;14.10;99.90;;;;;;5110472;27;20074;-66
2022/08/27 02:31:14;;;;;;;7.80;2.80;;;13.90;99.90;;;;;;5140434;27;20046;-66
2022/08/27 02:33:39;;;;;;;8.35;3.30;;;13.90;99.90;;;;;;5111799;27;20047;-66
2022/08/27 02:36:05;;;;;;;6.82;3.30;;;13.90;99.90;;;;;;5111464;27;20033;-66
2022/08/27 02:38:31;;;;;;;6.30;2.78;;;13.90;99.90;;;;;;5129739;27;20042;-66
2022/08/27 02:40:57;;;;;;;7.78;2.80;;;13.80;99.90;;;;;;5109879;27;20039;-66
2022/08/27 02:43:22;;;;;;;8.07;3.10;;;13.70;99.90;;;;;;5110136;27;20047;-66
2022/08/27 02:45:50;;;;;;;6.93;2.60;;;13.90;99.90;;;;;;5110028;27;20047;-66
2022/08/27 02:48:16;;;;;;;8.38;2.80;;;13.90;99.90;;;;;;5121089;27;20095;-66
2022/08/27 02:50:45;;;;;;;9.45;2.95;;;13.80;99.90;;;;;;5128325;27;20035;-66
2022/08/27 02:53:11;;;;;;;6.28;2.83;;;13.80;99.90;;;;;;5128570;27;20067;-66
2022/08/27 02:55:37;;;;;;;7.18;2.55;;;13.90;99.90;;;;;;5129495;27;20062;-66
2022/08/27 02:58:06;;;;;;;6.00;2.60;;;13.80;99.90;;;;;;5120308;27;20161;-66
2022/08/27 03:00:32;;;;;;;9.05;3.53;;;13.80;99.90;;;;;;5090046;27;20058;-66
2022/08/27 03:02:58;;;;;;;6.43;2.80;;;13.90;99.90;;;;;;5109213;27;20110;-66
2022/08/27 03:05:24;;;;;;;7.35;3.03;;;13.70;99.90;;;;;;5108892;27;20140;-66
2022/08/27 03:07:49;;;;;;;6.65;2.63;;;13.70;99.90;;;;;;5091884;27;20031;-66
2022/08/27 03:10:17;;;;;;;7.20;3.10;;;13.70;99.90;;;;;;5127513;27;20046;-66
2022/08/27 03:12:43;;;;;;;8.02;3.20;;;13.70;99.90;;;;;;5108957;27;20099;-66
2022/08/27 03:15:13;;;;;;;6.88;2.92;;;13.70;99.90;;;;;;5127816;27;20614;-66
2022/08/27 03:20:24;;;;;;;11.02;3.53;;;13.70;99.90;;;;;;5110959;27;20715;-66
2022/08/27 03:22:50;;;;;;;8.63;3.15;;;13.60;99.90;;;;;;5127939;27;20034;-66
2022/08/27 03:25:16;;;;;;;9.25;3.10;;;13.60;99.90;;;;;;5108433;27;20054;-66
2022/08/27 03:27:42;;;;;;;9.57;3.42;;;13.60;99.90;;;;;;5126625;27;20027;-66
2022/08/27 03:30:12;;;;;;;9.48;3.40;;;13.60;99.90;;;;;;5125789;27;20046;-66
2022/08/27 03:32:38;;;;;;;9.18;3.33;;;13.60;99.90;;;;;;5091671;27;20031;-68
2022/08/27 03:35:04;;;;;;;6.82;3.20;;;13.50;99.90;;;;;;5108431;27;20043;-66
2022/08/27 03:37:30;;;;;;;6.15;3.10;;;13.50;99.90;;;;;;5108732;27;20039;-66
2022/08/27 03:39:56;;;;;;;7.45;3.20;;;13.50;99.90;;;;;;5134641;27;20047;-66
2022/08/27 03:42:22;;;;;;;7.20;2.63;;;13.50;99.90;;;;;;5141679;27;20093;-66
2022/08/27 03:44:47;;;;;;;8.10;3.28;;;13.50;99.90;;;;;;5108363;27;20431;-66
2022/08/27 03:47:13;;;;;;;7.75;3.13;;;13.50;99.90;;;;;;5126157;27;20119;-66
2022/08/27 03:49:39;;;;;;;6.13;2.80;;;13.50;99.90;;;;;;5127334;27;20039;-66
2022/08/27 03:52:06;;;;;;;9.35;3.72;;;13.50;99.90;;;;;;5091226;27;20035;-66
2022/08/27 03:54:37;;;;;;;7.22;2.92;;;13.50;99.90;;;;;;5141890;27;20115;-66
2022/08/27 03:57:04;;;;;;;8.85;3.30;;;13.50;99.90;;;;;;5108974;27;20199;-66
2022/08/27 03:59:32;;;;;;;7.95;3.30;;;13.50;99.90;;;;;;5125796;27;20047;-66
2022/08/27 04:01:58;;;;;;;7.68;2.80;;;13.40;99.90;;;;;;5090623;27;20035;-67
2022/08/27 04:04:23;;;;;;;7.13;2.83;;;13.40;99.90;;;;;;5133427;27;20823;-66
2022/08/27 04:06:49;;;;;;;7.88;3.50;;;13.40;99.90;;;;;;5108823;27;20101;-66
2022/08/27 04:09:15;;;;;;;6.47;2.90;;;13.30;99.90;;;;;;5126210;27;20065;-66
2022/08/27 04:11:41;;;;;;;8.45;3.00;;;13.30;99.90;;;;;;5126455;27;20106;-66
2022/08/27 04:14:08;;;;;;;7.65;2.83;;;13.30;99.90;;;;;;5107184;27;20076;-66
2022/08/27 04:16:35;;;;;;;8.63;3.28;;;13.30;99.90;;;;;;5126482;27;20047;-66
2022/08/27 04:19:02;;;;;;;7.40;3.05;;;13.30;99.90;;;;;;5131260;27;20035;-66
2022/08/27 04:21:28;;;;;;;10.25;3.38;;;13.30;99.90;;;;;;5127272;27;20046;-66
2022/08/27 04:23:55;;;;;;;7.20;2.53;;;13.30;99.90;;;;;;5108441;27;20499;-65
2022/08/27 04:26:21;;;;;;;7.93;2.90;;;13.20;99.90;;;;;;5108591;27;20050;-65
2022/08/27 04:28:47;;;;;;;8.10;3.03;;;13.10;99.90;;;;;;5130957;27;20487;-65
2022/08/27 04:31:13;;;;;;;6.65;2.67;;;13.30;99.90;;;;;;5129972;27;20035;-65
2022/08/27 04:33:39;;;;;;;9.05;3.10;;;13.10;99.90;;;;;;5113360;27;20047;-65
2022/08/27 04:36:08;;;;;;;6.13;2.60;;;13.10;99.90;;;;;;5112514;27;20042;-65
2022/08/27 04:38:35;;;;;;;7.80;2.78;;;13.10;99.90;;;;;;5112917;27;20118;-65
2022/08/27 04:41:26;;;;;;;7.63;2.55;;;13.10;99.90;;;;;;5113034;27;20034;-65
2022/08/27 04:43:57;;;;;;;6.53;2.83;;;13.10;99.90;;;;;;5129974;27;20432;-65
2022/08/27 04:46:28;;;;;;;;;;;13.10;99.90;;;;;;5131286;27;20050;-65
2022/08/27 04:48:56;;;;;;;9.85;3.85;;;13.10;99.90;;;;;;5125923;27;20024;-65
2022/08/27 04:51:22;;;;;;;8.85;2.90;;;13.10;99.90;;;;;;5141630;27;20070;-65
2022/08/27 04:53:49;;;;;;;8.07;2.85;;;13.10;99.90;;;;;;5112064;27;20066;-65
2022/08/27 04:56:17;;;;;;;8.32;3.10;;;13.10;99.90;;;;;;5110323;27;20039;-65
2022/08/27 04:58:43;;;;;;;8.52;3.13;;;13.10;99.90;;;;;;5132863;27;20049;-65
2022/08/27 05:01:16;;;;;;;7.13;2.92;;;13.10;99.90;;;;;;5111573;27;20087;-65
2022/08/27 05:03:41;;;;;;;9.65;2.92;;;13.20;99.90;;;;;;5094499;27;20058;-65
2022/08/27 05:06:07;;;;;;;6.95;3.22;;;13.20;99.90;;;;;;5113516;27;20027;-66
2022/08/27 05:08:33;;;;;;;6.15;2.60;;;13.20;99.90;;;;;;5130197;27;20484;-65
2022/08/27 05:11:00;;;;;;;10.70;2.60;;;13.20;99.90;;;;;;5129304;27;20118;-65
2022/08/27 05:13:27;;;;;;;6.55;2.75;;;13.20;99.90;;;;;;5133101;27;20046;-66
2022/08/27 05:16:02;;;;;;;8.63;2.92;;;13.20;99.90;;;;;;5113259;27;20632;-66
2022/08/27 05:18:29;;;;;;;7.60;2.80;;;13.30;99.90;;;;;;5133191;27;20505;-66
2022/08/27 05:20:56;;;;;;;7.82;2.67;;;13.30;99.90;;;;;;5108681;27;20122;-66
2022/08/27 05:23:24;;;;;;;7.40;2.70;;;13.40;99.90;;;;;;5106508;27;20039;-66
2022/08/27 05:25:51;;;;;;;8.48;3.00;;;13.30;99.90;;;;;;5104996;27;20453;-66
2022/08/27 05:28:20;;;;;;;9.05;2.75;;;13.40;99.90;;;;;;5118347;27;20576;-66
2022/08/27 05:30:51;;;;;;;6.95;2.95;;;13.40;99.90;;;;;;5110283;27;20035;-65
2022/08/27 05:33:23;;;;;;;10.98;3.25;;;13.40;99.90;;;;;;5124564;27;20047;-66
2022/08/27 05:35:51;;;;;;;8.57;3.10;;;13.50;99.90;;;;;;5126935;27;20550;-65
2022/08/27 05:38:18;;;;;;;6.97;2.90;;;13.50;99.90;;;;;;5109539;27;20472;-65
2022/08/27 05:40:46;;;;;;;7.00;3.20;;;13.60;99.90;;;;;;5126156;27;20051;-65
2022/08/27 05:43:16;;;;;;;8.07;2.70;;;13.60;99.90;;;;;;5106227;27;20108;-66
2022/08/27 05:45:47;;;;;;;9.60;2.83;;;13.60;99.90;;;;;;5128759;27;20150;-65
2022/08/27 05:48:14;;;;;;;6.38;2.58;;;13.60;99.90;;;;;;5138338;27;20043;-65
2022/08/27 05:50:44;;;;;;;8.10;3.00;;;13.70;99.90;;;;;;5109355;27;20043;-66
2022/08/27 05:53:11;;;;;;;7.38;2.55;;;13.70;99.90;;;;;;5128367;27;20429;-65
2022/08/27 05:55:42;;;;;;;9.13;2.53;;;13.70;99.90;;;;;;5108162;27;20092;-65
2022/08/27 06:01:03;;;;;;;7.40;2.72;;;13.70;99.90;;;;;;5139574;27;20042;-65
2022/08/27 06:01:04;;;;;;;6.45;2.20;;;13.70;99.90;;;;;;5107616;27;20119;-65
2022/08/27 06:03:35;;;;;;;6.60;2.63;;;13.80;99.90;;;;;;5123466;27;20045;-66
2022/08/27 06:06:01;;;;;;;10.35;2.80;;;13.80;99.90;;;;;;5124188;27;20031;-66
2022/08/27 06:08:27;;;;;;;7.28;2.58;;;14.00;99.90;;;;;;5107655;27;20089;-65
2022/08/27 06:10:53;;;;;;;7.80;2.92;;;13.90;99.90;;;;;;5111100;27;20491;-65
2022/08/27 06:13:18;;;;;;;8.88;3.13;;;13.90;99.90;;;;;;5091121;27;20120;-66
2022/08/27 06:15:44;;;;;;;9.77;2.88;;;13.90;99.90;;;;;;5099391;27;20054;-66
2022/08/27 06:18:12;;;;;;;7.85;2.70;;;14.00;99.90;;;;;;5106678;27;20054;-65
2022/08/27 06:20:38;;;;;;;7.55;2.67;;;14.00;99.90;;;;;;5126271;27;20051;-65
2022/08/27 06:23:07;;;;;;;10.45;3.97;;;14.00;99.90;;;;;;5123607;27;20050;-66
2022/08/27 06:25:33;;;;;;;12.07;3.05;;;14.10;99.90;;;;;;5122792;27;20047;-66
2022/08/27 06:28:00;;;;;;;8.90;2.65;;;14.10;99.90;;;;;;5121582;27;20134;-66
2022/08/27 06:30:26;;;;;;;11.02;3.08;;;14.20;99.90;;;;;;5125968;27;20062;-66
2022/08/27 06:32:52;;;;;;;10.93;3.30;;;14.30;99.90;;;;;;5114801;27;20102;-66
2022/08/27 06:35:17;;;;;;;12.60;3.13;;;14.30;99.90;;;;;;5107003;27;20130;-66
2022/08/27 06:37:43;;;;;;;15.10;3.40;;;14.40;99.90;;;;;;5107101;27;20510;-66
2022/08/27 06:40:10;;;;;;;9.30;3.03;;;14.50;99.90;;;;;;5129530;27;20035;-66
2022/08/27 06:42:37;;;;;;;9.82;3.30;;;14.50;99.90;;;;;;5126584;27;20031;-65
2022/08/27 06:45:03;;;;;;;10.00;2.85;;;14.60;99.90;;;;;;5129357;27;20061;-65
2022/08/27 06:47:31;;;;;;;11.50;2.95;;;14.70;99.90;;;;;;5091830;27;20040;-65
2022/08/27 06:49:57;;;;;;;12.38;2.92;;;14.80;99.90;;;;;;5102882;27;20145;-66
2022/08/27 06:52:23;;;;;;;8.85;2.40;;;14.90;99.90;;;;;;5137595;27;20122;-66
2022/08/27 06:54:49;;;;;;;9.27;2.65;;;15.00;99.90;;;;;;5091703;27;20179;-64
2022/08/27 06:57:15;;;;;;;10.23;2.83;;;15.00;99.90;;;;;;5127800;27;20039;-64
2022/08/27 06:59:42;;;;;;;8.13;2.95;;;15.20;99.90;;;;;;5124048;27;20384;-64
2022/08/27 07:02:07;;;;;;;7.35;2.08;;;15.30;99.90;;;;;;5105646;27;20403;-65
2022/08/27 07:04:33;;;;;;;6.07;2.13;;;15.40;99.90;;;;;;5123222;27;20039;-65
2022/08/27 07:07:03;;;;;;;8.32;2.20;;;15.50;99.90;;;;;;5109065;27;20042;-64
2022/08/27 07:09:32;;;;;;;9.77;2.40;;;15.50;99.90;;;;;;5108290;27;20126;-65
2022/08/27 07:11:58;;;;;;;10.43;2.17;;;15.60;99.90;;;;;;5127104;27;20031;-65
2022/08/27 07:14:24;;;;;;;8.50;2.38;;;15.70;99.90;;;;;;5130373;27;20381;-65
2022/08/27 07:16:51;;;;;;;12.60;1.92;;;15.70;99.90;;;;;;5106983;27;20125;-65
2022/08/27 07:19:17;;;;;;;9.52;1.85;;;16.00;99.90;;;;;;5128005;27;20046;-65
2022/08/27 07:21:43;;;;;;;11.23;1.77;;;16.10;99.90;;;;;;5130759;27;20035;-65
2022/08/27 07:24:09;;;;;;;8.02;1.95;;;16.20;99.90;;;;;;5111722;27;20126;-65
2022/08/27 07:26:38;;;;;;;8.18;2.20;;;16.20;99.90;;;;;;5120231;27;20129;-65
2022/08/27 07:29:06;;;;;;;8.50;2.00;;;16.30;99.90;;;;;;5115908;27;20125;-65
2022/08/27 07:31:34;;;;;;;12.05;2.22;;;16.40;99.90;;;;;;5106204;27;20051;-65
2022/08/27 07:34:01;;;;;;;5.75;1.55;;;16.50;99.90;;;;;;5105702;27;20035;-65
2022/08/27 07:36:27;;;;;;;10.45;1.60;;;16.60;99.90;;;;;;5126666;27;20756;-65
2022/08/27 07:38:52;;;;;;;10.13;1.38;;;16.70;99.90;;;;;;5103532;27;20118;-64
2022/08/27 07:41:18;;;;;;;7.88;1.50;;;16.70;99.90;;;;;;5104970;28;20119;-65
2022/08/27 07:46:29;;;;;;;7.30;1.48;;;16.90;99.90;;;;;;5075546;28;20048;-65
2022/08/27 07:48:56;;;;;;;8.98;1.58;;;17.00;99.90;;;;;;5080561;28;20835;-64
2022/08/27 07:51:23;;;;;;;10.07;1.60;;;17.10;99.90;;;;;;5082361;28;20063;-65
2022/08/27 07:53:49;;;;;;;12.98;2.08;;;17.20;99.90;;;;;;5080615;28;20042;-64
2022/08/27 07:56:15;;;;;;;8.55;1.92;;;17.40;99.90;;;;;;5079508;28;20044;-65
2022/08/27 07:58:42;;;;;;;11.00;1.90;;;17.40;99.90;;;;;;5082010;28;20048;-65
2022/08/27 08:01:08;;;;;;;9.75;1.63;;;17.60;99.90;;;;;;5076265;28;20121;-64
2022/08/27 08:03:37;;;;;;;5.88;1.40;;;17.60;99.90;;;;;;5116942;27;20074;-65
2022/08/27 08:06:06;;;;;;;11.73;2.03;;;17.70;99.90;;;;;;5088341;28;20115;-65
2022/08/27 08:08:36;;;;;;;10.73;1.75;;;17.70;99.90;;;;;;5113161;27;20040;-65
2022/08/27 08:11:05;;;;;;;8.07;1.50;;;17.70;99.90;;;;;;5087230;28;20044;-65
2022/08/27 08:13:31;;;;;;;5.80;1.13;;;17.80;99.90;;;;;;5087352;28;20333;-65
2022/08/27 08:15:58;;;;;;;8.73;1.33;;;17.80;99.90;;;;;;5084595;28;20071;-65
2022/08/27 08:18:24;;;;;;;13.75;1.90;;;17.90;99.90;;;;;;5088368;28;20084;-65
2022/08/27 08:20:51;;;;;;;5.93;1.30;;;17.90;99.90;;;;;;5092528;28;20085;-65
2022/08/27 08:23:17;;;;;;;11.60;1.70;;;17.90;99.90;;;;;;5089518;28;20047;-65
2022/08/27 08:25:42;;;;;;;7.97;1.40;;;17.90;99.90;;;;;;5090814;28;20104;-65
2022/08/27 08:28:10;;;;;;;9.02;1.75;;;18.00;99.90;;;;;;5084079;28;20070;-65
2022/08/27 08:30:36;;;;;;;7.57;1.48;;;18.00;99.90;;;;;;5088018;28;20032;-65
2022/08/27 08:33:02;;;;;;;14.77;1.67;;;18.00;99.90;;;;;;5079558;28;20131;-65
2022/08/27 08:35:28;;;;;;;9.48;1.60;;;18.10;99.90;;;;;;5113228;27;20134;-65
2022/08/27 08:37:54;;;;;;;8.95;1.58;;;18.10;99.90;;;;;;5081439;28;20055;-65
2022/08/27 08:40:37;;;;;;;10.25;1.50;;;18.10;99.90;;;;;;5085392;28;20090;-65
2022/08/27 08:43:06;;;;;;;7.03;1.50;;;18.20;99.90;;;;;;5115431;27;20628;-65
2022/08/27 08:45:35;;;;;;;6.55;1.20;;;18.20;99.90;;;;;;5079020;28;20066;-65
2022/08/27 08:48:10;;;;;;;7.28;1.50;;;18.20;99.90;;;;;;5083215;28;20076;-65
2022/08/27 08:50:55;;;;;;;9.73;1.60;;;18.30;99.90;;;;;;5076083;28;20097;-65
2022/08/27 08:53:30;;;;;;;9.85;1.55;;;18.30;99.90;;;;;;5068546;28;20310;-66
2022/08/27 08:56:00;;;;;;;10.45;1.67;;;18.30;99.90;;;;;;5057405;28;20036;-65
2022/08/27 08:58:33;;;;;;;8.23;1.63;;;18.40;99.90;;;;;;5087047;28;20079;-65
2022/08/27 09:01:02;;;;;;;10.35;1.80;;;18.40;99.90;;;;;;5069485;28;20896;-66
2022/08/27 09:03:32;;;;;;;9.23;1.70;;;18.40;99.90;;;;;;5068084;28;20046;-65
2022/08/27 09:06:13;;;;;;;9.85;1.60;;;18.50;99.90;;;;;;5082844;28;20956;-66
2022/08/27 09:08:40;;;;;;;7.63;1.77;;;18.50;99.90;;;;;;5083949;28;20040;-65
2022/08/27 09:11:13;;;;;;;7.18;1.55;;;18.50;99.90;;;;;;5079633;28;20074;-65
2022/08/27 09:13:54;;;;;;;6.90;1.50;;;18.50;99.90;;;;;;5080188;28;20047;-65
2022/08/27 09:16:20;;;;;;;;;;;18.40;99.90;;;;;;5073490;28;20044;-66
2022/08/27 09:18:46;;;;;;;;;;;18.50;99.90;;;;;;5081775;28;20293;-66
2022/08/27 09:21:30;;;;;;;;;;;18.50;99.90;;;;;;5079879;28;19987;-65
2022/08/27 09:24:12;;;;;;;;;;;18.50;99.90;;;;;;5095300;28;21742;-65
2022/08/27 09:26:39;;;;;;;;;;;18.50;99.90;;;;;;5079747;28;20462;-65
2022/08/27 09:29:20;;;;;;;;;;;18.50;99.90;;;;;;5079713;28;19919;-66
2022/08/27 09:31:48;;;;;;;;;;;18.50;99.90;;;;;;5080552;28;19924;-66
2022/08/27 09:34:14;;;;;;;;;;;18.50;99.90;;;;;;5076893;28;19928;-66
2022/08/27 09:36:49;;;;;;;;;;;18.60;99.90;;;;;;5087306;28;19942;-66
2022/08/27 09:39:15;;;;;;;;;;;18.60;99.90;;;;;;5077882;28;19927;-65
2022/08/27 09:41:47;;;;;;;;;;;18.70;99.90;;;;;;5083593;28;20284;-66
2022/08/27 09:44:15;;;;;;;;;;;18.70;99.90;;;;;;5093506;27;19939;-66
2022/08/27 09:46:55;;;;;;;;;;;18.70;99.90;;;;;;5107206;27;20367;-66
2022/08/27 09:49:22;;;;;;;;;;;18.70;99.90;;;;;;5125963;27;20040;-65
2022/08/27 09:51:48;;;;;;;;;;;18.80;99.90;;;;;;5122155;27;19931;-65
2022/08/27 09:54:26;;;;;;;;;;;18.80;99.90;;;;;;5090609;27;20032;-65
2022/08/27 09:56:51;;;;;;;;;;;18.90;99.90;;;;;;5128189;27;19923;-65
2022/08/27 09:59:22;;;;;;;;;;;19.10;99.90;;;;;;5126927;27;19926;-65
2022/08/27 10:01:47;;;;;;;;;;;19.20;99.90;;;;;;5125474;27;19923;-66
2022/08/27 10:04:15;;;;;;;;;;;19.20;99.90;;;;;;5125108;27;20290;-66
2022/08/27 10:06:44;;;;;;;;;;;19.30;99.90;;;;;;5108557;27;19919;-67
2022/08/27 10:09:20;;;;;;;;;;;19.50;99.90;;;;;;5126355;27;19946;-66
2022/08/27 10:11:53;;;;;;;;;;;19.70;99.90;;;;;;5126823;27;20381;-66
2022/08/27 10:14:22;;;;;;;;;;;19.80;99.90;;;;;;5122986;27;19930;-66
2022/08/27 10:16:54;;;;;;;;;;;19.80;99.90;;;;;;5109525;27;19931;-66
2022/08/27 10:19:40;;;;;;;;;;;19.80;99.90;;;;;;5126245;27;19972;-63
2022/08/27 10:22:26;;;;;;;;;;;19.80;99.90;;;;;;5106843;27;19930;-65
2022/08/27 10:24:52;;;;;;;;;;;19.80;99.90;;;;;;5070568;27;19931;-66
2022/08/27 10:27:26;;;;;;;;;;;19.80;99.90;;;;;;5125809;27;19991;-65
2022/08/27 10:29:54;;;;;;;;;;;19.80;99.90;;;;;;5141251;27;20402;-65
2022/08/27 10:32:24;;;;;;;;;;;19.90;99.90;;;;;;5125291;27;20321;-63
2022/08/27 10:34:59;;;;;;;;;;;19.90;99.90;;;;;;5124271;27;20345;-65
2022/08/27 10:37:38;;;;;;;;;;;19.80;99.90;;;;;;5087551;27;19941;-65
2022/08/27 10:40:20;;;;;;;;;;;19.80;99.90;;;;;;5094676;27;19919;-65
2022/08/27 10:42:46;;;;;;;;;;;19.90;99.90;;;;;;5112626;27;19962;-65
2022/08/27 10:45:30;;;;;;;;;;;20.00;99.90;;;;;;5125130;27;19966;-65
2022/08/27 10:47:55;;;;;;;;;;;20.00;99.90;;;;;;5126271;27;19919;-65
2022/08/27 10:50:32;;;;;;;;;;;20.00;99.90;;;;;;5124870;27;19938;-66
2022/08/27 10:53:07;;;;;;;;;;;20.00;99.90;;;;;;5102637;27;19931;-66
2022/08/27 10:55:40;;;;;;;;;;;20.00;99.90;;;;;;5107362;27;19923;-65
2022/08/27 10:58:20;;;;;;;;;;;20.00;99.90;;;;;;5123806;27;20280;-65
2022/08/27 11:01:04;;;;;;;;;;;19.90;99.90;;;;;;5126751;27;19927;-66
2022/08/27 11:03:37;;;;;;;;;;;19.90;99.90;;;;;;5141078;27;19919;-66
2022/08/27 11:06:10;;;;;;;;;;;19.80;99.90;;;;;;5109444;27;19927;-66
2022/08/27 11:08:36;;;;;;;;;;;19.80;99.90;;;;;;5126579;27;19923;-66
2022/08/27 11:11:06;;;;;;;;;;;19.80;99.90;;;;;;5107753;27;19923;-66
2022/08/27 11:13:34;;;;;;;;;;;20.00;99.90;;;;;;5111806;27;20259;-66
2022/08/27 11:16:01;;;;;;;;;;;20.10;99.90;;;;;;5124338;27;19919;-66
2022/08/27 11:18:46;;;;;;;;;;;20.10;99.90;;;;;;5107075;27;20399;-66
2022/08/27 11:21:13;;;;;;;;;;;20.20;99.90;;;;;;5130241;27;19954;-66
2022/08/27 11:23:42;;;;;;;;;;;20.20;99.90;;;;;;5109454;27;19919;-66
2022/08/27 11:26:07;;;;;;;;;;;20.10;99.90;;;;;;5109423;28;19919;-67
2022/08/27 11:28:40;;;;;;;;;;;20.30;99.90;;;;;;5106322;27;19933;-65
2022/08/27 11:31:21;;;;;;;;;;;20.40;99.90;;;;;;5116916;27;20022;-66
2022/08/27 11:33:58;;;;;;;;;;;20.40;99.90;;;;;;5104238;27;19950;-66
2022/08/27 11:36:43;;;;;;;;;;;20.50;99.90;;;;;;5105474;27;19953;-66
2022/08/27 11:39:18;;;;;;;;;;;20.60;99.90;;;;;;5105372;27;19924;-66
2022/08/27 11:42:02;;;;;;;;;;;20.60;99.90;;;;;;5135752;27;20347;-66
2022/08/27 11:44:28;;;;;;;;;;;20.70;99.90;;;;;;5109674;27;19930;-65
2022/08/27 11:46:56;;;;;;;;;;;20.70;99.90;;;;;;5129074;27;20483;-65
2022/08/27 11:49:23;;;;;;;;;;;20.80;99.90;;;;;;5121291;27;19922;-65
2022/08/27 11:51:55;;;;;;;;;;;20.80;99.90;;;;;;5108481;27;20194;-65
2022/08/27 11:54:43;;;;;;;;;;;20.80;99.90;;;;;;5127620;27;19977;-66
2022/08/27 11:57:29;;;;;;;;;;;20.80;99.90;;;;;;5109780;27;19973;-65
2022/08/27 11:59:54;;;;;;;;;;;20.80;99.90;;;;;;5111083;27;19938;-66
2022/08/27 12:02:24;;;;;;;;;;;20.80;99.90;;;;;;5127728;27;20375;-66
2022/08/27 12:04:49;;;;;;;;;;;20.80;99.90;;;;;;5112176;27;19927;-65
2022/08/27 12:07:20;;;;;;;;;;;20.70;99.90;;;;;;5106892;27;19976;-66
2022/08/27 12:10:05;;;;;;;;;;;20.70;99.90;;;;;;5140651;27;20033;-65
2022/08/27 12:12:33;;;;;;;;;;;20.60;99.90;;;;;;5126151;27;20344;-65
2022/08/27 12:15:22;;;;;;;;;;;20.70;99.90;;;;;;5112129;27;19927;-65
2022/08/27 12:18:08;;;;;;;;;;;20.60;99.90;;;;;;5093717;27;20018;-65
2022/08/27 12:21:09;;;;;;;;;;;20.70;99.90;;;;;;5124992;27;19981;-66
2022/08/27 12:23:42;;;;;;;;;;;20.60;99.90;;;;;;5049357;28;19924;-65
2022/08/27 12:26:27;;;;;;;;;;;20.60;99.90;;;;;;5114479;27;19930;-66
2022/08/27 12:29:13;;;;;;;;;;;20.60;99.90;;;;;;5109705;27;19934;-66
2022/08/27 12:31:40;;;;;;;;;;;20.60;99.90;;;;;;5125913;27;20034;-66
2022/08/27 12:34:12;;;;;;;;;;;20.60;99.90;;;;;;5093480;27;19920;-65
2022/08/27 12:36:38;;;;;;;;;;;20.60;99.90;;;;;;5108736;27;19919;-65
2022/08/27 12:39:10;;;;;;;;;;;20.60;99.90;;;;;;5130009;27;19927;-65
2022/08/27 12:41:38;;;;;;;;;;;20.70;99.90;;;;;;5126158;27;19923;-66
2022/08/27 12:44:05;;;;;;;;;;;20.70;99.90;;;;;;5089170;27;19927;-65
2022/08/27 12:46:31;;;;;;;;;;;20.80;99.90;;;;;;5106940;27;19927;-66
2022/08/27 12:48:58;;;;;;;;;;;20.90;99.90;;;;;;5124048;27;19930;-66
2022/08/27 12:51:25;;;;;;;;;;;21.00;99.90;;;;;;5106527;27;19927;-65
2022/08/27 12:54:00;;;;;;;;;;;21.00;99.90;;;;;;5127500;27;19970;-65
2022/08/27 12:56:44;;;;;;;;;;;21.00;99.90;;;;;;5106861;27;19923;-65
2022/08/27 12:59:19;;;;;;;;;;;20.90;99.90;;;;;;5109055;27;19945;-65
2022/08/27 13:01:57;;;;;;;;;;;20.90;99.90;;;;;;5132109;27;19964;-66
2022/08/27 13:04:24;;;;;;;;;;;20.90;99.90;;;;;;5125615;27;19976;-66
2022/08/27 13:06:50;;;;;;;;;;;21.00;99.90;;;;;;5109109;27;19923;-66
2022/08/27 13:09:23;;;;;;;;;;;21.00;99.90;;;;;;5132763;27;19961;-65
2022/08/27 13:11:55;;;;;;;;;;;21.10;99.90;;;;;;5090316;27;20549;-65
2022/08/27 13:14:21;;;;;;;;;;;21.00;99.90;;;;;;5131668;27;20030;-65
2022/08/27 13:16:50;;;;;;;;;;;20.90;99.90;;;;;;5108705;27;19927;-66
2022/08/27 13:19:22;;;;;;;;;;;20.90;99.90;;;;;;5131428;27;19923;-66
2022/08/27 13:21:49;;;;;;;;;;;20.90;99.90;;;;;;5134933;27;19930;-66
2022/08/27 13:24:19;;;;;;;;;;;20.90;99.90;;;;;;5128089;27;19928;-66
2022/08/27 13:26:47;;;;;;;;;;;20.90;99.90;;;;;;5111671;27;20014;-65
2022/08/27 13:29:13;;;;;;;;;;;20.90;99.90;;;;;;5141585;27;19959;-65
2022/08/27 13:31:39;;;;;;;;;;;21.00;99.90;;;;;;5138299;27;19919;-65